createdAt,value
2018-05-03T00:00:09.971Z,12.74
2018-05-03T00:02:39.017Z,12.82
2018-05-03T00:07:44.171Z,12.70
2018-05-03T00:10:13.213Z,12.72
2018-05-03T00:12:42.280Z,12.48
2018-05-03T00:15:11.361Z,12.42
2018-05-03T00:17:40.417Z,12.40
2018-05-03T00:20:09.546Z,12.38
2018-05-03T00:22:38.602Z,12.39
2018-05-03T00:25:07.727Z,12.53
2018-05-03T00:27:36.788Z,12.59
2018-05-03T00:30:05.831Z,12.52
2018-05-03T00:32:34.966Z,12.69
2018-05-03T00:37:39.794Z,12.80
2018-05-03T00:40:09.092Z,12.73
2018-05-03T00:42:38.151Z,12.67
2018-05-03T00:45:07.203Z,12.60
2018-05-03T00:47:36.258Z,12.68
2018-05-03T00:50:05.573Z,12.52
2018-05-03T00:52:34.621Z,12.43
2018-05-03T00:55:03.680Z,12.44
2018-05-03T00:57:32.718Z,12.47
2018-05-03T01:00:01.950Z,12.50
2018-05-03T01:02:31.057Z,12.61
2018-05-03T01:05:00.095Z,12.45
2018-05-03T01:07:29.242Z,12.43
2018-05-03T01:09:58.314Z,12.26
2018-05-03T01:15:03.217Z,12.00
2018-05-03T01:17:32.403Z,11.96
2018-05-03T01:20:01.456Z,11.95
2018-05-03T01:22:30.538Z,11.88
2018-05-03T01:24:59.590Z,11.83
2018-05-03T01:27:28.823Z,11.83
2018-05-03T01:29:57.870Z,11.86
2018-05-03T01:37:50.363Z,11.79
2018-05-03T01:42:55.197Z,11.76
2018-05-03T01:48:00.036Z,11.81
2018-05-03T01:50:29.087Z,11.74
2018-05-03T01:52:58.202Z,11.73
2018-05-03T01:55:27.254Z,11.72
2018-05-03T01:57:56.305Z,11.74
2018-05-03T02:00:25.341Z,11.70
2018-05-03T02:02:54.533Z,11.75
2018-05-03T02:05:23.587Z,11.73
2018-05-03T02:07:52.633Z,11.76
2018-05-03T02:10:21.704Z,11.79
2018-05-03T02:12:50.933Z,11.73
2018-05-03T02:15:20.360Z,11.71
2018-05-03T02:17:49.407Z,11.70
2018-05-03T02:20:18.486Z,11.68
2018-05-03T02:22:47.541Z,11.71
2018-05-03T02:25:16.897Z,11.72
2018-05-03T02:27:46.854Z,11.71
2018-05-03T02:30:15.931Z,11.73
2018-05-03T02:32:45.017Z,11.80
2018-05-03T02:35:14.101Z,11.85
2018-05-03T02:37:43.148Z,11.86
2018-05-03T02:40:12.214Z,11.94
2018-05-03T02:42:42.374Z,12.00
2018-05-03T02:45:11.644Z,11.92
2018-05-03T02:47:40.674Z,11.99
2018-05-03T02:50:09.776Z,12.02
2018-05-03T02:52:39.218Z,12.08
2018-05-03T02:55:08.246Z,12.11
2018-05-03T02:58:00.469Z,12.08
2018-05-03T03:00:52.818Z,12.06
2018-05-03T03:15:31.544Z,12.36
2018-05-03T03:18:18.174Z,12.24
2018-05-03T03:21:10.479Z,12.11
2018-05-03T03:29:58.618Z,12.12
2018-05-03T03:32:45.695Z,12.04
2018-05-03T03:39:00.178Z,12.15
2018-05-03T03:46:44.748Z,12.23
2018-05-03T03:49:13.799Z,12.24
2018-05-03T03:51:42.845Z,12.20
2018-05-03T03:54:12.049Z,12.15
2018-05-03T03:56:41.098Z,12.14
2018-05-03T04:01:45.923Z,12.38
2018-05-03T04:04:14.998Z,12.42
2018-05-03T04:06:44.260Z,12.49
2018-05-03T04:09:13.308Z,12.42
2018-05-03T04:11:42.353Z,12.22
2018-05-03T04:14:11.395Z,12.08
2018-05-03T04:16:40.457Z,12.07
2018-05-03T04:22:22.007Z,11.88
2018-05-03T04:25:08.654Z,11.83
2018-05-03T04:27:37.706Z,11.70
2018-05-03T04:30:06.980Z,11.79
2018-05-03T04:32:37.422Z,11.73
2018-05-03T04:35:07.450Z,11.75
2018-05-03T04:37:36.490Z,11.79
2018-05-03T04:40:05.941Z,11.83
2018-05-03T04:42:34.988Z,11.90
2018-05-03T04:45:04.042Z,12.03
2018-05-03T04:47:33.359Z,12.13
2018-05-03T04:50:02.418Z,12.23
2018-05-03T04:52:31.522Z,12.15
2018-05-03T04:55:00.862Z,12.26
2018-05-03T04:57:29.910Z,12.35
2018-05-03T04:59:58.989Z,12.53
2018-05-03T05:02:28.310Z,12.77
2018-05-03T05:04:57.558Z,12.66
2018-05-03T05:07:26.603Z,12.75
2018-05-03T05:09:56.025Z,12.82
2018-05-03T05:12:25.074Z,12.78
2018-05-03T05:14:54.153Z,12.81
2018-05-03T05:17:23.196Z,12.60
2018-05-03T05:19:52.254Z,12.51
2018-05-03T05:22:22.131Z,12.49
2018-05-03T05:24:51.170Z,12.47
2018-05-03T05:27:20.219Z,12.47
2018-05-03T05:29:49.290Z,12.57
2018-05-03T05:34:54.047Z,12.76
2018-05-03T05:37:23.112Z,12.71
2018-05-03T05:39:52.174Z,12.69
2018-05-03T05:44:56.523Z,12.51
2018-05-03T05:47:25.566Z,12.65
2018-05-03T05:49:55.103Z,12.84
2018-05-03T05:52:24.154Z,12.66
2018-05-03T05:54:53.276Z,12.76
2018-05-03T05:57:22.304Z,12.83
2018-05-03T05:59:51.705Z,12.98
2018-05-03T06:04:56.458Z,13.02
2018-05-03T06:07:25.509Z,12.84
2018-05-03T06:09:54.699Z,12.76
2018-05-03T06:12:23.766Z,12.85
2018-05-03T06:14:53.231Z,12.80
2018-05-03T06:17:22.277Z,13.01
2018-05-03T06:19:51.755Z,12.88
2018-05-03T06:22:20.804Z,12.85
2018-05-03T06:24:49.871Z,12.77
2018-05-03T06:27:19.733Z,13.04
2018-05-03T06:29:48.762Z,13.18
2018-05-03T06:32:18.478Z,13.42
2018-05-03T06:34:47.686Z,13.72
2018-05-03T06:37:17.683Z,14.01
2018-05-03T06:39:47.019Z,13.76
2018-05-03T06:42:16.085Z,13.79
2018-05-03T06:44:45.718Z,14.02
2018-05-03T06:47:14.770Z,14.11
2018-05-03T06:49:44.763Z,14.62
2018-05-03T06:52:16.362Z,14.67
2018-05-03T06:54:45.425Z,14.86
2018-05-03T06:59:50.427Z,15.19
2018-05-03T07:02:19.557Z,15.23
2018-05-03T07:04:48.640Z,15.14
2018-05-03T07:09:54.042Z,16.06
2018-05-03T07:12:23.104Z,16.14
2018-05-03T07:14:52.547Z,16.40
2018-05-03T07:19:57.383Z,16.52
2018-05-03T07:22:26.902Z,16.65
2018-05-03T07:24:55.960Z,16.45
2018-05-03T07:27:25.887Z,16.49
2018-05-03T07:29:55.133Z,16.71
2018-05-03T07:32:24.174Z,16.79
2018-05-03T07:34:53.276Z,16.53
2018-05-03T07:37:22.274Z,16.23
2018-05-03T07:42:29.161Z,16.52
2018-05-03T07:47:35.134Z,16.65
2018-05-03T07:50:04.157Z,16.75
2018-05-03T07:52:34.607Z,16.73
2018-05-03T07:55:03.691Z,16.75
2018-05-03T07:57:32.943Z,17.02
2018-05-03T08:00:02.018Z,16.87
2018-05-03T08:02:31.067Z,17.06
2018-05-03T08:05:00.134Z,17.20
2018-05-03T08:07:29.178Z,17.32
2018-05-03T08:12:34.701Z,17.77
2018-05-03T08:15:03.679Z,17.48
2018-05-03T08:17:33.213Z,17.66
2018-05-03T08:20:02.264Z,17.21
2018-05-03T08:22:31.442Z,17.15
2018-05-03T08:30:12.270Z,19.04
2018-05-03T08:32:41.322Z,19.46
2018-05-03T08:35:10.376Z,19.34
2018-05-03T08:37:39.792Z,19.45
2018-05-03T08:40:08.811Z,19.46
2018-05-03T08:42:38.754Z,19.21
2018-05-03T08:45:07.790Z,19.69
2018-05-03T08:47:37.674Z,19.98
2018-05-03T08:50:06.727Z,20.15
2018-05-03T08:52:35.785Z,21.07
2018-05-03T08:55:06.690Z,20.97
2018-05-03T08:57:35.787Z,21.07
2018-05-03T09:00:04.833Z,19.93
2018-05-03T09:02:33.887Z,19.79
2018-05-03T09:05:02.933Z,19.56
2018-05-03T09:07:32.039Z,20.30
2018-05-03T09:10:01.177Z,20.00
2018-05-03T09:12:30.225Z,19.89
2018-05-03T09:14:59.891Z,20.05
2018-05-03T09:17:28.934Z,19.91
2018-05-03T09:19:58.949Z,19.47
2018-05-03T09:22:27.988Z,19.66
2018-05-03T09:27:32.910Z,19.60
2018-05-03T09:30:01.963Z,19.22
2018-05-03T09:32:31.026Z,18.53
2018-05-03T09:35:00.082Z,18.56
2018-05-03T09:37:29.125Z,18.71
2018-05-03T09:42:33.997Z,19.26
2018-05-03T09:45:03.983Z,19.45
2018-05-03T09:47:33.031Z,20.08
2018-05-03T09:50:02.859Z,20.71
2018-05-03T09:52:32.053Z,21.28
2018-05-03T09:55:02.115Z,21.18
2018-05-03T09:57:31.161Z,22.29
2018-05-03T10:00:00.211Z,23.88
2018-05-03T10:02:29.279Z,25.45
2018-05-03T10:04:58.699Z,26.78
2018-05-03T10:07:27.734Z,26.67
2018-05-03T10:09:57.965Z,27.05
2018-05-03T10:12:27.047Z,28.13
2018-05-03T10:20:09.026Z,30.73
2018-05-03T10:25:13.856Z,32.64
2018-05-03T10:27:42.897Z,32.30
2018-05-03T10:32:47.802Z,31.67
2018-05-03T10:35:17.375Z,30.15
2018-05-03T10:37:46.422Z,30.37
2018-05-03T10:40:16.059Z,31.91
2018-05-03T10:42:45.103Z,32.11
2018-05-03T10:45:14.154Z,32.17
2018-05-03T10:47:44.464Z,32.88
2018-05-03T10:50:13.513Z,33.74
2018-05-03T10:52:43.235Z,32.77
2018-05-03T10:55:12.293Z,31.68
2018-05-03T10:57:41.895Z,30.48
2018-05-03T11:00:10.976Z,31.72
2018-05-03T11:02:40.055Z,33.28
2018-05-03T11:05:09.126Z,32.75
2018-05-03T11:07:38.181Z,31.12
2018-05-03T11:10:07.279Z,32.72
2018-05-03T11:15:12.138Z,33.21
2018-05-03T11:17:41.190Z,34.24
2018-05-03T11:20:11.290Z,34.47
2018-05-03T11:22:40.347Z,34.99
2018-05-03T11:25:10.061Z,33.81
2018-05-03T11:30:14.919Z,31.11
2018-05-03T11:35:19.776Z,28.83
2018-05-03T11:37:49.512Z,27.85
2018-05-03T11:40:18.548Z,26.12
2018-05-03T11:42:48.144Z,26.15
2018-05-03T11:45:17.106Z,25.96
2018-05-03T11:50:22.299Z,26.23
2018-05-03T11:52:51.370Z,25.52
2018-05-03T11:55:20.454Z,25.24
2018-05-03T11:57:49.501Z,25.43
2018-05-03T12:00:18.561Z,25.03
2018-05-03T12:02:47.626Z,24.24
2018-05-03T12:05:16.697Z,24.18
2018-05-03T12:07:45.750Z,24.33
2018-05-03T12:10:16.043Z,24.02
2018-05-03T12:12:45.152Z,23.19
2018-05-03T12:15:14.969Z,22.60
2018-05-03T12:17:44.025Z,22.27
2018-05-03T12:22:48.827Z,22.28
2018-05-03T12:25:18.537Z,21.70
2018-05-03T12:27:48.522Z,21.63
2018-05-03T12:30:17.578Z,21.31
2018-05-03T12:32:47.108Z,21.56
2018-05-03T12:35:16.177Z,22.11
2018-05-03T12:37:46.141Z,22.65
2018-05-03T12:42:50.927Z,23.24
2018-05-03T12:45:20.127Z,23.31
2018-05-03T12:50:25.838Z,23.89
2018-05-03T12:52:54.898Z,23.83
2018-05-03T12:55:24.715Z,23.72
2018-05-03T12:57:53.782Z,23.63
2018-05-03T13:00:22.881Z,23.88
2018-05-03T13:02:52.069Z,24.22
2018-05-03T13:05:21.111Z,23.87
2018-05-03T13:07:50.175Z,24.44
2018-05-03T13:10:19.227Z,24.53
2018-05-03T13:12:49.096Z,24.32
2018-05-03T13:15:18.126Z,24.40
2018-05-03T13:17:48.099Z,24.79
2018-05-03T13:20:17.259Z,24.45
2018-05-03T13:22:46.383Z,24.60
2018-05-03T13:25:15.438Z,24.09
2018-05-03T13:30:21.214Z,24.08
2018-05-03T13:35:25.966Z,24.50
2018-05-03T13:37:55.370Z,24.82
2018-05-03T13:43:00.223Z,24.78
2018-05-03T13:45:29.331Z,25.27
2018-05-03T13:47:59.462Z,25.36
2018-05-03T13:53:04.199Z,26.41
2018-05-03T13:55:36.698Z,27.49
2018-05-03T13:58:06.697Z,27.12
2018-05-03T14:00:35.758Z,27.64
2018-05-03T14:03:04.808Z,28.28
2018-05-03T14:05:33.868Z,30.43
2018-05-03T14:08:03.272Z,31.76
2018-05-03T14:13:08.528Z,31.59
2018-05-03T14:15:37.558Z,30.73
2018-05-03T14:18:06.646Z,30.59
2018-05-03T14:20:35.826Z,27.63
2018-05-03T14:23:04.940Z,26.33
2018-05-03T14:25:35.482Z,25.99
2018-05-03T14:28:04.522Z,26.50
2018-05-03T14:30:33.928Z,25.15
2018-05-03T14:33:02.982Z,24.62
2018-05-03T14:38:08.257Z,25.28
2018-05-03T14:40:37.339Z,27.31
2018-05-03T14:43:08.764Z,29.27
2018-05-03T14:45:38.154Z,31.62
2018-05-03T14:48:07.205Z,31.46
2018-05-03T14:50:36.294Z,30.81
2018-05-03T14:53:05.816Z,29.66
2018-05-03T14:55:37.636Z,30.39
2018-05-03T14:58:08.766Z,29.57
2018-05-03T15:00:44.069Z,28.95
2018-05-03T15:03:19.277Z,26.89
2018-05-03T15:05:50.663Z,26.38
2018-05-03T15:08:21.797Z,25.75
2018-05-03T15:10:51.678Z,25.79
2018-05-03T15:13:21.436Z,25.86
2018-05-03T15:15:50.666Z,24.76
2018-05-03T15:18:27.603Z,24.35
2018-05-03T15:23:39.163Z,24.10
2018-05-03T15:26:09.930Z,23.11
2018-05-03T15:28:39.639Z,23.54
2018-05-03T15:31:19.844Z,22.80
2018-05-03T15:33:50.000Z,22.07
2018-05-03T15:36:19.123Z,21.54
2018-05-03T15:38:48.570Z,21.23
2018-05-03T15:41:17.847Z,21.00
2018-05-03T15:43:56.775Z,20.50
2018-05-03T15:46:27.451Z,20.25
2018-05-03T15:48:56.638Z,20.20
2018-05-03T15:51:26.946Z,20.04
2018-05-03T15:53:56.181Z,19.97
2018-05-03T15:56:25.258Z,19.85
2018-05-03T15:58:54.342Z,19.96
2018-05-03T16:03:59.128Z,20.22
2018-05-03T16:06:28.208Z,20.25
2018-05-03T16:08:57.878Z,20.23
2018-05-03T16:11:26.952Z,20.36
2018-05-03T16:13:57.028Z,20.32
2018-05-03T16:19:02.000Z,20.03
2018-05-03T16:21:31.247Z,19.71
2018-05-03T16:24:00.612Z,19.68
2018-05-03T16:26:29.816Z,19.62
2018-05-03T16:29:00.145Z,19.43
2018-05-03T16:31:29.312Z,19.45
2018-05-03T16:33:58.442Z,19.25
2018-05-03T16:36:27.566Z,19.24
2018-05-03T16:38:56.634Z,19.23
2018-05-03T16:41:25.790Z,19.25
2018-05-03T16:43:55.441Z,19.16
2018-05-03T16:46:24.776Z,19.35
2018-05-03T16:48:53.907Z,19.27
2018-05-03T16:51:23.458Z,19.22
2018-05-03T16:53:52.636Z,19.11
2018-05-03T16:56:21.742Z,19.12
2018-05-03T16:58:50.903Z,19.03
2018-05-03T17:01:20.002Z,19.08
2018-05-03T17:06:25.550Z,19.09
2018-05-03T17:08:54.692Z,19.13
2018-05-03T17:11:23.980Z,18.92
2018-05-03T17:13:53.232Z,19.06
2018-05-03T17:16:22.345Z,19.04
2018-05-03T17:21:27.539Z,18.91
2018-05-03T17:23:57.491Z,18.74
2018-05-03T17:26:26.627Z,18.92
2018-05-03T17:28:55.762Z,18.75
2018-05-03T17:31:25.221Z,18.64
2018-05-03T17:33:54.329Z,18.55
2018-05-03T17:36:23.852Z,18.49
2018-05-03T17:38:52.962Z,18.52
2018-05-03T17:43:57.901Z,18.49
2018-05-03T17:46:28.237Z,18.49
2018-05-03T17:48:57.413Z,18.36
2018-05-03T17:51:26.535Z,18.16
2018-05-03T17:53:55.626Z,17.90
2018-05-03T17:56:25.181Z,18.11
2018-05-03T17:58:54.395Z,17.95
2018-05-03T18:01:24.820Z,17.75
2018-05-03T18:03:54.975Z,17.78
2018-05-03T18:06:24.123Z,17.95
2018-05-03T18:08:53.535Z,17.64
2018-05-03T18:11:22.619Z,17.45
2018-05-03T18:13:52.669Z,17.22
2018-05-03T18:16:22.357Z,17.07
2018-05-03T18:18:51.925Z,16.95
2018-05-03T18:21:21.034Z,16.85
2018-05-03T18:23:51.025Z,16.81
2018-05-03T18:26:20.500Z,16.81
2018-05-03T18:28:49.613Z,16.80
2018-05-03T18:31:18.691Z,16.81
2018-05-03T18:33:47.871Z,17.00
2018-05-03T18:38:52.679Z,17.25
2018-05-03T18:41:22.322Z,17.11
2018-05-03T18:46:27.624Z,17.28
2018-05-03T18:48:57.215Z,17.20
2018-05-03T18:51:26.373Z,17.20
2018-05-03T18:53:55.932Z,17.22
2018-05-03T18:59:00.847Z,17.48
2018-05-03T19:01:29.958Z,17.44
2018-05-03T19:03:59.500Z,17.36
2018-05-03T19:06:28.530Z,17.26
2018-05-03T19:08:57.805Z,17.20
2018-05-03T19:11:26.986Z,17.17
2018-05-03T19:13:56.766Z,17.10
2018-05-03T19:16:25.864Z,17.04
2018-05-03T19:18:54.972Z,17.09
2018-05-03T19:21:25.122Z,17.29
2018-05-03T19:23:54.801Z,17.29
2018-05-03T19:26:25.007Z,17.06
2018-05-03T19:28:54.139Z,16.89
2018-05-03T19:31:23.808Z,16.95
2018-05-03T19:33:53.007Z,16.82
2018-05-03T19:36:22.152Z,16.77
2018-05-03T19:38:51.971Z,16.77
2018-05-03T19:43:57.977Z,16.88
2018-05-03T19:49:03.078Z,16.99
2018-05-03T19:51:32.599Z,16.80
2018-05-03T19:54:01.629Z,16.76
2018-05-03T19:56:30.843Z,16.90
2018-05-03T19:59:00.455Z,16.81
2018-05-03T20:01:30.047Z,16.68
2018-05-03T20:03:59.184Z,16.58
2018-05-03T20:06:28.456Z,16.52
2018-05-03T20:11:33.650Z,16.52
2018-05-03T20:14:02.712Z,16.49
2018-05-03T20:19:07.575Z,16.56
2018-05-03T20:21:36.664Z,16.56
2018-05-03T20:24:06.349Z,16.56
2018-05-03T20:26:35.479Z,16.60
2018-05-03T20:29:05.160Z,16.65
2018-05-03T20:31:34.325Z,16.48
2018-05-03T20:34:03.943Z,16.35
2018-05-03T20:36:33.424Z,16.32
2018-05-03T20:39:02.607Z,16.26
2018-05-03T20:41:31.786Z,16.27
2018-05-03T20:44:01.348Z,16.19
2018-05-03T20:46:30.769Z,16.38
2018-05-03T20:48:59.941Z,16.40
2018-05-03T20:54:05.074Z,16.43
2018-05-03T20:56:35.246Z,16.45
2018-05-03T20:59:04.721Z,16.43
2018-05-03T21:04:09.509Z,16.35
2018-05-03T21:06:38.581Z,16.29
2018-05-03T21:09:08.146Z,16.29
2018-05-03T21:11:37.609Z,16.12
2018-05-03T21:14:06.698Z,16.24
2018-05-03T21:19:11.699Z,16.08
2018-05-03T21:24:16.624Z,16.13
2018-05-03T21:26:46.453Z,15.99
2018-05-03T21:29:15.543Z,15.90
2018-05-03T21:31:44.806Z,15.90
2018-05-03T21:34:14.001Z,15.83
2018-05-03T21:36:43.080Z,15.78
2018-05-03T21:39:12.145Z,15.74
2018-05-03T21:41:41.394Z,15.69
2018-05-03T21:44:12.780Z,15.65
2018-05-03T21:46:41.844Z,15.69
2018-05-03T21:49:11.075Z,15.65
2018-05-03T21:51:40.160Z,15.59
2018-05-03T21:54:09.233Z,15.49
2018-05-03T21:56:39.006Z,15.40
2018-05-03T21:59:08.119Z,15.38
2018-05-03T22:01:37.225Z,15.60
2018-05-03T22:04:06.409Z,15.42
2018-05-03T22:06:35.472Z,15.35
2018-05-03T22:09:06.906Z,15.30
2018-05-03T22:11:36.177Z,15.31
2018-05-03T22:14:05.377Z,15.27
2018-05-03T22:16:34.486Z,15.34
2018-05-03T22:19:03.582Z,15.48
2018-05-03T22:24:08.629Z,15.55
2018-05-03T22:26:37.828Z,15.50
2018-05-03T22:29:07.388Z,15.47
2018-05-03T22:31:36.502Z,15.30
2018-05-03T22:34:05.663Z,15.33
2018-05-03T22:36:35.263Z,15.16
2018-05-03T22:39:04.329Z,15.15
2018-05-03T22:44:13.061Z,15.19
2018-05-03T22:46:42.263Z,15.00
2018-05-03T22:49:11.396Z,14.88
2018-05-03T22:51:40.618Z,14.83
2018-05-03T22:54:09.706Z,14.77
2018-05-03T22:56:38.850Z,14.71
2018-05-03T22:59:08.040Z,14.71
2018-05-03T23:01:37.148Z,14.74
2018-05-03T23:04:06.342Z,14.94
2018-05-03T23:06:36.291Z,14.91
2018-05-03T23:09:05.434Z,14.96
2018-05-03T23:11:34.561Z,14.98
2018-05-03T23:14:03.736Z,14.95
2018-05-03T23:16:33.532Z,14.89
2018-05-03T23:19:02.627Z,14.90
2018-05-03T23:24:07.548Z,15.13
2018-05-03T23:26:36.662Z,15.04
2018-05-03T23:29:06.079Z,15.08
2018-05-03T23:31:35.195Z,15.12
2018-05-03T23:34:04.664Z,15.20
2018-05-03T23:36:34.073Z,15.14
2018-05-03T23:39:03.174Z,15.22
2018-05-03T23:41:32.277Z,15.35
2018-05-03T23:44:01.683Z,15.11
2018-05-03T23:46:30.803Z,14.93
2018-05-03T23:48:59.946Z,14.98
2018-05-03T23:51:30.650Z,14.85
2018-05-03T23:54:00.619Z,14.99
2018-05-03T23:56:29.833Z,14.88
2018-05-03T23:58:59.315Z,14.83
